createdAt,value
2019-03-31T00:01:30.762Z,14.37
2019-03-31T00:04:01.021Z,15.33
2019-03-31T00:06:31.118Z,18.53
2019-03-31T00:09:01.361Z,18.83
2019-03-31T00:11:31.627Z,17.83
2019-03-31T00:14:01.793Z,17.50
2019-03-31T00:16:32.239Z,19.87
2019-03-31T00:19:02.561Z,19.67
2019-03-31T00:21:32.845Z,17.57
2019-03-31T00:24:03.273Z,19.30
2019-03-31T00:26:33.689Z,19.00
2019-03-31T00:29:04.167Z,23.90
2019-03-31T00:31:34.348Z,19.13
2019-03-31T00:34:04.508Z,17.47
2019-03-31T00:36:34.865Z,21.10
2019-03-31T00:39:07.725Z,21.07
2019-03-31T00:41:38.045Z,20.60
2019-03-31T00:44:08.190Z,22.17
2019-03-31T00:46:38.287Z,20.77
2019-03-31T00:49:08.602Z,20.93
2019-03-31T00:51:39.010Z,24.50
2019-03-31T00:54:09.178Z,21.50
2019-03-31T00:56:39.405Z,20.77
2019-03-31T00:59:09.693Z,20.70
2019-03-31T01:01:58.556Z,20.43
2019-03-31T01:04:30.129Z,17.77
2019-03-31T01:07:00.511Z,21.20
2019-03-31T01:09:35.368Z,21.07
2019-03-31T01:12:05.969Z,21.00
2019-03-31T01:14:36.647Z,21.53
2019-03-31T01:17:10.120Z,20.20
2019-03-31T01:19:40.243Z,21.17
2019-03-31T01:22:10.561Z,24.10
2019-03-31T01:24:40.917Z,21.67
2019-03-31T01:27:12.775Z,23.83
2019-03-31T01:29:42.934Z,22.00
2019-03-31T01:32:13.319Z,19.73
2019-03-31T01:34:43.795Z,20.53
2019-03-31T01:37:14.377Z,21.13
2019-03-31T01:39:44.556Z,24.63
2019-03-31T01:42:14.669Z,23.50
2019-03-31T01:44:44.768Z,22.83
2019-03-31T01:47:14.891Z,21.90
2019-03-31T01:49:45.211Z,22.97
2019-03-31T01:52:15.405Z,21.37
2019-03-31T01:54:45.697Z,20.47
2019-03-31T01:57:15.810Z,23.67
2019-03-31T01:59:46.128Z,27.17
2019-03-31T02:02:24.715Z,22.97
2019-03-31T02:04:54.908Z,21.47
2019-03-31T02:07:25.015Z,23.30
2019-03-31T02:09:55.114Z,24.80
2019-03-31T02:12:25.203Z,22.77
2019-03-31T02:14:55.587Z,20.77
2019-03-31T02:17:25.688Z,21.77
2019-03-31T02:19:55.800Z,22.10
2019-03-31T02:22:26.024Z,24.10
2019-03-31T02:24:56.144Z,22.20
2019-03-31T02:27:26.323Z,23.47
2019-03-31T02:29:56.408Z,21.73
2019-03-31T02:32:26.614Z,21.13
2019-03-31T02:34:56.768Z,20.87
2019-03-31T02:37:26.908Z,22.00
2019-03-31T02:39:57.171Z,20.33
2019-03-31T02:42:27.286Z,19.67
2019-03-31T02:44:57.371Z,22.17
2019-03-31T02:47:27.595Z,18.47
2019-03-31T02:49:57.684Z,20.07
2019-03-31T02:52:27.957Z,20.57
2019-03-31T02:54:58.654Z,21.87
2019-03-31T02:57:29.344Z,20.03
2019-03-31T03:00:00.478Z,22.10
2019-03-31T03:02:41.458Z,23.63
2019-03-31T03:05:18.478Z,24.00
2019-03-31T03:07:39.552Z,23.40
2019-03-31T03:10:09.767Z,24.37
2019-03-31T03:12:42.351Z,21.20
2019-03-31T03:15:14.218Z,22.13
2019-03-31T03:17:44.558Z,19.77
2019-03-31T03:20:14.699Z,22.40
2019-03-31T03:22:44.765Z,20.93
2019-03-31T03:25:15.240Z,22.03
2019-03-31T03:27:45.357Z,21.57
2019-03-31T03:30:15.656Z,22.70
2019-03-31T03:33:12.231Z,24.63
2019-03-31T03:35:17.581Z,22.83
2019-03-31T03:37:47.778Z,21.33
2019-03-31T03:40:18.041Z,22.80
2019-03-31T03:42:48.199Z,23.03
2019-03-31T03:45:18.329Z,23.83
2019-03-31T03:47:48.425Z,23.53
2019-03-31T03:50:18.537Z,19.90
2019-03-31T03:52:48.706Z,24.27
2019-03-31T03:55:18.954Z,22.70
2019-03-31T03:57:49.251Z,23.97
2019-03-31T04:00:19.555Z,22.77
2019-03-31T04:02:49.897Z,25.57
2019-03-31T04:05:20.114Z,26.03
2019-03-31T04:07:50.342Z,20.70
2019-03-31T04:11:06.219Z,23.37
2019-03-31T04:13:36.337Z,22.33
2019-03-31T04:16:06.434Z,27.23
2019-03-31T04:18:36.617Z,26.97
2019-03-31T04:21:06.855Z,25.03
2019-03-31T04:23:37.133Z,25.93
2019-03-31T04:26:07.382Z,23.20
2019-03-31T04:28:37.717Z,21.83
2019-03-31T04:31:07.970Z,23.90
2019-03-31T04:33:50.323Z,21.30
2019-03-31T04:36:10.094Z,25.50
2019-03-31T04:38:40.435Z,19.20
2019-03-31T04:41:10.736Z,19.93
2019-03-31T04:43:40.985Z,21.13
2019-03-31T04:46:11.281Z,18.73
2019-03-31T04:48:41.606Z,21.50
2019-03-31T04:51:11.801Z,19.93
2019-03-31T04:53:42.195Z,20.77
2019-03-31T04:56:12.408Z,22.13
2019-03-31T04:58:42.912Z,24.03
2019-03-31T05:01:13.216Z,24.03
2019-03-31T05:03:43.523Z,22.43
2019-03-31T05:06:13.784Z,25.00
2019-03-31T05:08:44.211Z,27.37
2019-03-31T05:11:14.520Z,23.67
2019-03-31T05:13:44.792Z,22.63
2019-03-31T05:16:14.988Z,24.53
2019-03-31T05:18:45.124Z,23.17
2019-03-31T05:21:15.440Z,22.33
2019-03-31T05:23:45.780Z,21.60
2019-03-31T05:26:16.098Z,21.80
2019-03-31T05:28:46.328Z,23.63
2019-03-31T05:31:16.661Z,21.80
2019-03-31T05:33:46.943Z,22.37
2019-03-31T05:36:17.256Z,20.40
2019-03-31T05:38:47.424Z,18.73
2019-03-31T05:41:17.506Z,18.07
2019-03-31T05:43:47.728Z,18.37
2019-03-31T05:46:17.994Z,19.83
2019-03-31T05:48:48.106Z,20.20
2019-03-31T05:51:18.334Z,18.83
2019-03-31T05:53:48.466Z,20.20
2019-03-31T05:56:18.671Z,16.60
2019-03-31T05:58:48.998Z,20.13
2019-03-31T06:01:19.324Z,19.27
2019-03-31T06:03:49.448Z,18.57
2019-03-31T06:06:19.724Z,20.50
2019-03-31T06:08:49.844Z,19.37
2019-03-31T06:11:20.002Z,19.17
2019-03-31T06:13:50.258Z,18.40
2019-03-31T06:16:20.553Z,18.83
2019-03-31T06:18:50.740Z,18.43
2019-03-31T06:21:21.028Z,16.73
2019-03-31T06:23:51.321Z,19.67
2019-03-31T06:26:21.701Z,15.10
2019-03-31T06:28:51.927Z,19.17
2019-03-31T06:31:22.140Z,18.30
2019-03-31T06:33:52.309Z,18.77
2019-03-31T06:36:22.628Z,17.93
2019-03-31T06:38:52.925Z,17.80
2019-03-31T06:41:23.274Z,18.17
2019-03-31T06:43:53.495Z,18.57
2019-03-31T06:46:23.888Z,19.23
2019-03-31T06:48:54.149Z,21.33
2019-03-31T06:51:24.469Z,20.37
2019-03-31T06:53:54.784Z,16.03
2019-03-31T06:56:25.178Z,17.30
2019-03-31T06:58:55.343Z,16.10
2019-03-31T07:01:25.413Z,16.17
2019-03-31T07:03:55.532Z,14.10
2019-03-31T07:06:25.705Z,15.80
2019-03-31T07:08:55.858Z,14.37
2019-03-31T07:11:26.073Z,15.17
2019-03-31T07:13:56.461Z,11.73
2019-03-31T07:16:26.697Z,16.00
2019-03-31T07:18:56.905Z,12.70
2019-03-31T07:21:27.243Z,11.77
2019-03-31T07:23:57.567Z,11.10
2019-03-31T07:26:27.889Z,10.20
2019-03-31T07:28:57.961Z,11.53
2019-03-31T07:31:28.491Z,10.10
2019-03-31T07:33:58.662Z,11.03
2019-03-31T07:36:28.981Z,11.33
2019-03-31T07:38:59.164Z,9.43
2019-03-31T07:41:29.671Z,9.50
2019-03-31T07:44:00.129Z,10.10
2019-03-31T07:46:30.397Z,9.30
2019-03-31T07:49:00.799Z,10.10
2019-03-31T07:51:31.110Z,9.57
2019-03-31T07:54:01.371Z,10.40
2019-03-31T07:56:31.564Z,9.97
2019-03-31T07:59:01.906Z,9.77
2019-03-31T08:01:32.228Z,9.23
2019-03-31T08:04:02.360Z,9.83
2019-03-31T08:06:32.581Z,10.50
2019-03-31T08:09:02.785Z,9.53
2019-03-31T08:11:33.039Z,9.90
2019-03-31T08:14:03.143Z,9.30
2019-03-31T08:16:33.501Z,8.57
2019-03-31T08:19:03.610Z,9.83
2019-03-31T08:21:33.899Z,10.93
2019-03-31T08:24:06.692Z,22.80
2019-03-31T08:26:35.943Z,10.53
2019-03-31T08:29:06.133Z,10.60
2019-03-31T08:31:36.471Z,9.77
2019-03-31T08:34:06.682Z,10.23
2019-03-31T08:36:37.015Z,12.87
2019-03-31T08:39:09.474Z,11.33
2019-03-31T08:41:39.778Z,10.60
2019-03-31T08:44:09.880Z,11.70
2019-03-31T08:46:40.056Z,10.87
2019-03-31T08:49:10.435Z,10.10
2019-03-31T08:51:40.688Z,9.93
2019-03-31T08:54:11.018Z,10.23
2019-03-31T08:56:41.300Z,10.07
2019-03-31T08:59:11.468Z,10.60
2019-03-31T09:01:42.295Z,10.77
2019-03-31T09:04:12.432Z,11.40
2019-03-31T09:06:42.636Z,10.80
2019-03-31T09:09:12.736Z,12.03
2019-03-31T09:11:43.092Z,13.90
2019-03-31T09:14:13.255Z,14.20
2019-03-31T09:16:43.496Z,14.80
2019-03-31T09:19:13.720Z,13.20
2019-03-31T09:21:43.832Z,12.60
2019-03-31T09:24:14.031Z,13.60
2019-03-31T09:26:44.342Z,14.50
2019-03-31T09:29:14.648Z,14.93
2019-03-31T09:31:45.044Z,14.07
2019-03-31T09:34:15.472Z,14.83
2019-03-31T09:36:45.604Z,17.93
2019-03-31T09:39:15.840Z,16.93
2019-03-31T09:41:46.068Z,21.67
2019-03-31T09:44:16.180Z,19.70
2019-03-31T09:46:46.324Z,20.50
2019-03-31T09:49:16.538Z,20.80
2019-03-31T09:51:46.756Z,19.87
2019-03-31T09:54:16.865Z,20.83
2019-03-31T09:56:47.205Z,19.43
2019-03-31T09:59:17.413Z,20.80
2019-03-31T10:01:47.728Z,19.70
2019-03-31T10:04:17.937Z,18.83
2019-03-31T10:06:48.248Z,21.27
2019-03-31T10:09:18.497Z,18.43
2019-03-31T10:11:48.819Z,20.53
2019-03-31T10:14:18.985Z,19.00
2019-03-31T10:16:52.759Z,18.93
2019-03-31T10:19:23.319Z,19.40
2019-03-31T10:21:53.735Z,17.30
2019-03-31T10:24:24.161Z,18.17
2019-03-31T10:26:54.389Z,19.70
2019-03-31T10:29:24.919Z,16.17
2019-03-31T10:31:55.038Z,17.27
2019-03-31T10:34:25.394Z,17.33
2019-03-31T10:36:55.846Z,17.03
2019-03-31T10:39:26.085Z,20.00
2019-03-31T10:41:56.338Z,19.53
2019-03-31T10:44:26.693Z,17.07
2019-03-31T10:46:58.578Z,17.10
2019-03-31T10:49:30.256Z,18.53
2019-03-31T10:52:00.690Z,16.87
2019-03-31T10:54:31.037Z,14.10
2019-03-31T10:57:01.315Z,14.87
2019-03-31T10:59:31.605Z,10.97
2019-03-31T11:02:01.899Z,14.60
2019-03-31T11:04:32.323Z,10.57
2019-03-31T11:07:03.604Z,9.83
2019-03-31T11:09:34.464Z,11.27
2019-03-31T11:12:04.939Z,10.50
2019-03-31T11:14:35.213Z,11.77
2019-03-31T11:17:05.384Z,8.57
2019-03-31T11:19:35.674Z,10.90
2019-03-31T11:22:22.925Z,10.23
2019-03-31T11:24:53.065Z,11.80
2019-03-31T11:27:23.363Z,12.70
2019-03-31T11:29:53.447Z,13.43
2019-03-31T11:32:23.636Z,13.43
2019-03-31T11:34:53.913Z,13.13
2019-03-31T11:37:24.171Z,12.70
2019-03-31T11:39:54.451Z,14.60
2019-03-31T11:42:24.802Z,13.40
2019-03-31T11:44:54.961Z,13.50
2019-03-31T11:47:25.267Z,12.20
2019-03-31T11:49:55.337Z,13.83
2019-03-31T11:52:25.489Z,12.00
2019-03-31T11:54:55.605Z,12.30
2019-03-31T11:57:25.928Z,15.33
2019-03-31T11:59:56.231Z,12.50
2019-03-31T12:02:27.806Z,13.27
2019-03-31T12:04:58.335Z,11.63
2019-03-31T12:07:28.813Z,10.90
2019-03-31T12:09:59.079Z,11.57
2019-03-31T12:12:29.327Z,13.07
2019-03-31T12:15:00.885Z,13.73
2019-03-31T12:17:31.835Z,12.57
2019-03-31T12:20:01.909Z,12.67
2019-03-31T12:22:32.230Z,13.50
2019-03-31T12:25:02.553Z,12.83
2019-03-31T12:27:32.613Z,13.67
2019-03-31T12:30:02.843Z,11.87
2019-03-31T12:32:33.163Z,12.23
2019-03-31T12:35:03.365Z,13.60
2019-03-31T12:37:42.389Z,13.87
2019-03-31T12:40:06.427Z,10.97
2019-03-31T12:42:36.877Z,12.57
2019-03-31T12:45:07.261Z,12.90
2019-03-31T12:47:37.515Z,12.80
2019-03-31T12:50:07.919Z,12.73
2019-03-31T12:52:46.490Z,12.57
2019-03-31T12:55:10.120Z,11.73
2019-03-31T12:57:40.495Z,12.43
2019-03-31T13:00:11.589Z,11.50
2019-03-31T13:02:41.973Z,12.30
2019-03-31T13:05:12.252Z,12.27
2019-03-31T13:07:55.680Z,12.07
2019-03-31T13:10:14.771Z,11.00
2019-03-31T13:12:45.042Z,12.57
2019-03-31T13:15:15.532Z,11.57
2019-03-31T13:17:45.750Z,11.13
2019-03-31T13:20:16.254Z,13.37
2019-03-31T13:22:46.312Z,12.53
2019-03-31T13:25:16.640Z,11.67
2019-03-31T13:27:47.052Z,13.97
2019-03-31T13:30:17.227Z,11.60
2019-03-31T13:32:47.442Z,10.87
2019-03-31T13:35:17.830Z,12.83
2019-03-31T13:37:48.119Z,10.33
2019-03-31T13:40:18.296Z,11.30
2019-03-31T13:42:48.688Z,10.70
2019-03-31T13:45:19.145Z,13.10
2019-03-31T13:47:49.245Z,9.83
2019-03-31T13:50:19.437Z,19.67
2019-03-31T13:52:49.628Z,13.67
2019-03-31T13:55:38.539Z,17.07
2019-03-31T13:58:09.217Z,17.67
2019-03-31T14:00:44.169Z,15.43
2019-03-31T14:03:16.013Z,14.17
2019-03-31T14:05:46.210Z,14.77
2019-03-31T14:08:25.479Z,12.53
2019-03-31T14:10:48.582Z,10.87
2019-03-31T14:13:18.700Z,11.20
2019-03-31T14:15:48.837Z,10.60
2019-03-31T14:18:19.136Z,10.30
2019-03-31T14:20:49.455Z,8.97
2019-03-31T14:23:19.574Z,8.43
2019-03-31T14:25:49.709Z,8.53
2019-03-31T14:28:19.980Z,8.80
2019-03-31T14:30:50.349Z,7.97
2019-03-31T14:33:20.609Z,7.87
2019-03-31T14:35:50.946Z,10.07
2019-03-31T14:38:21.268Z,9.43
2019-03-31T14:40:51.463Z,8.70
2019-03-31T14:43:21.633Z,11.90
2019-03-31T14:45:51.890Z,8.87
2019-03-31T14:48:22.250Z,10.30
2019-03-31T14:50:52.372Z,11.67
2019-03-31T14:53:22.595Z,11.17
2019-03-31T14:55:52.931Z,9.00
2019-03-31T14:58:23.136Z,9.33
2019-03-31T15:00:53.422Z,10.63
2019-03-31T15:03:23.790Z,8.80
2019-03-31T15:05:53.912Z,9.83
2019-03-31T15:08:24.133Z,9.23
2019-03-31T15:10:54.464Z,10.73
2019-03-31T15:13:24.658Z,11.67
2019-03-31T15:15:55.003Z,9.70
2019-03-31T15:18:25.391Z,11.30
2019-03-31T15:20:55.734Z,8.90
2019-03-31T15:23:29.203Z,10.93
2019-03-31T15:25:58.112Z,10.37
2019-03-31T15:28:28.356Z,11.20
2019-03-31T15:30:58.576Z,10.33
2019-03-31T15:33:28.662Z,10.57
2019-03-31T15:35:58.960Z,9.17
2019-03-31T15:38:29.166Z,8.30
2019-03-31T15:40:59.286Z,9.87
2019-03-31T15:43:29.589Z,8.70
2019-03-31T15:45:59.921Z,9.97
2019-03-31T15:48:30.200Z,8.17
2019-03-31T15:51:00.469Z,9.17
2019-03-31T15:53:30.680Z,11.30
2019-03-31T15:56:00.808Z,11.00
2019-03-31T15:58:31.114Z,10.50
2019-03-31T16:01:01.364Z,8.93
2019-03-31T16:03:33.136Z,11.13
2019-03-31T16:06:03.432Z,11.67
2019-03-31T16:08:33.468Z,12.43
2019-03-31T16:11:04.894Z,10.13
2019-03-31T16:13:53.761Z,11.43
2019-03-31T16:16:23.453Z,12.87
2019-03-31T16:18:53.404Z,9.50
2019-03-31T16:21:23.416Z,13.30
2019-03-31T16:23:53.332Z,12.20
2019-03-31T16:26:23.182Z,9.60
2019-03-31T16:28:52.976Z,11.87
2019-03-31T16:31:22.732Z,10.10
2019-03-31T16:33:53.331Z,10.57
2019-03-31T16:36:23.199Z,9.47
2019-03-31T16:38:52.753Z,10.13
2019-03-31T16:41:22.505Z,9.93
2019-03-31T16:43:52.074Z,12.03
2019-03-31T16:46:21.798Z,11.47
2019-03-31T16:48:51.523Z,12.47
2019-03-31T16:51:21.057Z,9.77
2019-03-31T16:53:51.055Z,9.70
2019-03-31T16:56:20.757Z,12.13
2019-03-31T16:58:50.356Z,9.40
2019-03-31T17:01:20.023Z,10.00
2019-03-31T17:03:49.759Z,13.23
2019-03-31T17:06:19.342Z,11.23
2019-03-31T17:08:49.101Z,15.47
2019-03-31T17:11:18.669Z,14.57
2019-03-31T17:13:48.387Z,17.47
2019-03-31T17:16:18.151Z,12.30
2019-03-31T17:18:47.793Z,11.77
2019-03-31T17:21:17.445Z,13.30
2019-03-31T17:23:47.259Z,12.63
2019-03-31T17:26:16.989Z,11.37
2019-03-31T17:28:46.772Z,15.43
2019-03-31T17:31:16.436Z,12.40
2019-03-31T17:33:46.297Z,13.00
2019-03-31T17:36:16.151Z,11.33
2019-03-31T17:38:45.686Z,13.27
2019-03-31T17:41:15.237Z,11.53
2019-03-31T17:43:45.117Z,14.60
2019-03-31T17:46:14.793Z,11.20
2019-03-31T17:48:44.654Z,13.30
2019-03-31T17:51:14.537Z,13.70
2019-03-31T17:53:44.207Z,16.07
2019-03-31T17:56:13.814Z,14.30
2019-03-31T17:58:43.649Z,8.90
2019-03-31T18:01:13.349Z,7.23
2019-03-31T18:03:43.146Z,36.50
2019-03-31T18:06:12.991Z,5.70
2019-03-31T18:08:42.864Z,5.03
2019-03-31T18:11:12.533Z,5.37
2019-03-31T18:13:42.329Z,5.30
2019-03-31T18:16:11.873Z,5.73
2019-03-31T18:18:42.561Z,6.60
2019-03-31T18:21:12.434Z,5.73
2019-03-31T18:23:42.029Z,7.60
2019-03-31T18:26:11.874Z,9.23
2019-03-31T18:28:43.738Z,6.30
2019-03-31T18:31:12.921Z,7.53
2019-03-31T18:33:42.682Z,5.17
2019-03-31T18:36:12.494Z,5.80
2019-03-31T18:38:42.310Z,7.17
2019-03-31T18:41:12.083Z,5.67
2019-03-31T18:43:51.346Z,7.00
2019-03-31T18:46:13.474Z,6.07
2019-03-31T18:48:43.286Z,6.33
2019-03-31T18:51:13.170Z,8.73
2019-03-31T18:54:02.250Z,6.50
2019-03-31T18:56:46.304Z,6.00
2019-03-31T18:59:35.544Z,22.07
2019-03-31T19:02:27.055Z,90.00
2019-03-31T19:05:15.726Z,29.13
2019-03-31T19:08:03.437Z,17.13
2019-03-31T19:11:10.440Z,11.43
2019-03-31T19:13:59.145Z,6.60
2019-03-31T19:16:53.957Z,7.73
2019-03-31T19:19:39.263Z,8.70
2019-03-31T19:22:43.148Z,8.70
2019-03-31T19:25:34.774Z,7.70
2019-03-31T19:28:23.962Z,7.53
2019-03-31T19:31:15.441Z,5.67
2019-03-31T19:34:12.798Z,5.67
2019-03-31T19:37:01.518Z,6.23
2019-03-31T19:40:05.240Z,6.57
2019-03-31T19:43:02.956Z,5.73
2019-03-31T19:45:54.494Z,6.13
2019-03-31T19:48:37.466Z,6.57
2019-03-31T19:51:41.243Z,6.67
2019-03-31T19:54:32.632Z,6.07
2019-03-31T19:57:39.536Z,6.30
2019-03-31T20:00:31.547Z,6.00
2019-03-31T20:03:13.024Z,6.27
2019-03-31T20:06:00.431Z,6.23
2019-03-31T20:08:57.482Z,8.03
2019-03-31T20:11:41.436Z,7.57
2019-03-31T20:14:33.034Z,7.60
2019-03-31T20:17:27.067Z,6.20
2019-03-31T20:20:27.921Z,7.10
2019-03-31T20:23:22.569Z,9.90
2019-03-31T20:26:09.765Z,9.40
2019-03-31T20:28:58.246Z,11.20
2019-03-31T20:31:46.345Z,8.90
2019-03-31T20:34:31.238Z,9.93
2019-03-31T20:37:33.718Z,17.77
2019-03-31T20:40:25.642Z,13.13
2019-03-31T20:43:14.611Z,9.07
2019-03-31T20:45:44.382Z,7.63
2019-03-31T20:48:14.245Z,9.70
2019-03-31T20:50:43.998Z,8.23
2019-03-31T20:53:13.624Z,8.40
2019-03-31T20:55:43.447Z,8.83
2019-03-31T20:58:13.014Z,8.33
2019-03-31T21:00:42.636Z,10.83
2019-03-31T21:03:12.241Z,10.03
2019-03-31T21:05:41.816Z,10.37
2019-03-31T21:08:11.353Z,13.33
2019-03-31T21:10:41.334Z,7.90
2019-03-31T21:13:10.972Z,10.33
2019-03-31T21:15:40.575Z,9.37
2019-03-31T21:18:10.339Z,10.80
2019-03-31T21:20:40.084Z,11.30
2019-03-31T21:23:09.649Z,10.00
2019-03-31T21:25:39.625Z,11.07
2019-03-31T21:28:09.376Z,12.13
2019-03-31T21:30:39.750Z,12.80
2019-03-31T21:33:09.389Z,10.83
2019-03-31T21:35:39.457Z,10.53
2019-03-31T21:38:09.347Z,12.00
2019-03-31T21:40:38.950Z,12.67
2019-03-31T21:43:08.503Z,13.00
2019-03-31T21:45:38.389Z,12.67
2019-03-31T21:48:08.241Z,13.43
2019-03-31T21:50:37.883Z,12.27
2019-03-31T21:53:07.425Z,11.43
2019-03-31T21:55:37.089Z,12.73
2019-03-31T21:58:06.833Z,13.53
2019-03-31T22:00:51.759Z,12.57
2019-03-31T22:03:21.479Z,12.20
2019-03-31T22:05:51.165Z,12.47
2019-03-31T22:08:20.719Z,11.80
2019-03-31T22:10:50.369Z,11.30
2019-03-31T22:13:20.053Z,10.10
2019-03-31T22:15:49.730Z,14.03
2019-03-31T22:18:19.483Z,12.80
2019-03-31T22:20:49.314Z,11.00
2019-03-31T22:23:19.169Z,9.80
2019-03-31T22:25:48.790Z,11.83
2019-03-31T22:28:18.617Z,11.50
2019-03-31T22:30:48.158Z,16.57
2019-03-31T22:33:18.061Z,13.20
2019-03-31T22:36:05.593Z,11.10
2019-03-31T22:38:35.174Z,13.30
2019-03-31T22:41:04.954Z,10.30
2019-03-31T22:43:34.622Z,9.60
2019-03-31T22:46:04.240Z,11.33
2019-03-31T22:48:33.881Z,9.83
2019-03-31T22:51:03.623Z,9.03
2019-03-31T22:53:33.246Z,9.47
2019-03-31T22:56:02.946Z,9.97
2019-03-31T22:58:32.546Z,12.73
2019-03-31T23:01:02.251Z,11.83
2019-03-31T23:03:32.283Z,11.37
2019-03-31T23:06:01.834Z,9.37
2019-03-31T23:08:31.382Z,10.53
2019-03-31T23:11:01.209Z,11.60
2019-03-31T23:13:30.748Z,12.50
2019-03-31T23:16:00.297Z,10.40
2019-03-31T23:18:30.117Z,13.27
2019-03-31T23:21:00.076Z,13.60
2019-03-31T23:23:29.987Z,12.73
2019-03-31T23:25:59.780Z,11.40
2019-03-31T23:28:29.654Z,10.50
2019-03-31T23:30:59.324Z,10.90
2019-03-31T23:33:29.100Z,9.30
2019-03-31T23:35:58.940Z,9.97
2019-03-31T23:38:47.544Z,10.87
2019-03-31T23:41:17.280Z,10.87
2019-03-31T23:43:46.856Z,11.30
2019-03-31T23:46:16.528Z,12.70
2019-03-31T23:48:46.413Z,12.67
2019-03-31T23:51:16.120Z,16.03
2019-03-31T23:53:45.844Z,18.20
2019-03-31T23:56:15.556Z,21.03
2019-03-31T23:58:46.692Z,20.73
